createdAt,value
2022-12-11T00:00:19.357Z,100817.97
2022-12-11T00:04:22.279Z,100818.31
2022-12-11T00:08:28.248Z,100810.59
2022-12-11T00:12:31.075Z,100809.47
2022-12-11T00:16:33.908Z,100813.28
2022-12-11T00:20:36.682Z,100821.16
2022-12-11T00:24:40.888Z,100813.81
2022-12-11T00:28:44.214Z,100817.31
2022-12-11T00:32:46.978Z,100813.28
2022-12-11T00:36:49.861Z,100807.13
2022-12-11T00:40:53.964Z,100800.28
2022-12-11T00:44:57.016Z,100801.59
2022-12-11T00:48:59.810Z,100795.72
2022-12-11T00:53:02.699Z,100795.88
2022-12-11T00:57:06.796Z,100804.41
2022-12-11T01:01:11.011Z,100792.34
2022-12-11T01:05:14.446Z,100790.88
2022-12-11T01:09:34.830Z,100798.72
2022-12-11T01:13:40.035Z,100795.84
2022-12-11T01:17:42.775Z,100784.88
2022-12-11T01:21:45.505Z,100793.22
2022-12-11T01:25:48.267Z,100798.56
2022-12-11T01:29:52.564Z,100789.72
2022-12-11T01:33:55.816Z,100790.72
2022-12-11T01:37:59.224Z,100790.72
2022-12-11T01:42:02.751Z,100790.91
2022-12-11T01:46:06.904Z,100790.53
2022-12-11T01:50:09.637Z,100801.56
2022-12-11T01:54:15.873Z,100793.03
2022-12-11T01:58:19.823Z,100786.47
2022-12-11T02:02:27.269Z,100781.94
2022-12-11T02:06:33.324Z,100783.06
2022-12-11T02:10:52.660Z,100771.22
2022-12-11T02:15:01.427Z,100779.56
2022-12-11T02:19:18.988Z,100779.88
2022-12-11T02:23:40.051Z,100769.38
2022-12-11T02:27:47.383Z,100756.97
2022-12-11T02:31:55.209Z,100764.94
2022-12-11T02:35:59.057Z,100761.75
2022-12-11T02:40:05.765Z,100764.06
2022-12-11T02:44:12.136Z,100762.22
2022-12-11T02:48:18.283Z,100756.84
2022-12-11T02:52:24.596Z,100764.06
2022-12-11T02:56:31.612Z,100762.06
2022-12-11T03:00:35.478Z,100753.84
2022-12-11T03:04:41.531Z,100746.97
2022-12-11T03:08:44.309Z,100743.75
2022-12-11T03:12:53.577Z,100740.06
2022-12-11T03:17:06.016Z,100741.75
2022-12-11T03:21:19.867Z,100742.38
2022-12-11T03:25:25.847Z,100751.44
2022-12-11T03:29:35.610Z,100757.50
2022-12-11T03:33:42.360Z,100757.81
2022-12-11T03:37:49.380Z,100753.16
2022-12-11T03:41:54.940Z,100757.50
2022-12-11T03:45:59.353Z,100760.63
2022-12-11T03:50:05.646Z,100758.97
2022-12-11T03:54:11.028Z,100762.19
2022-12-11T03:58:13.809Z,100767.28
2022-12-11T04:02:16.513Z,100765.56
2022-12-11T04:06:19.721Z,100766.03
2022-12-11T04:10:23.839Z,100752.78
2022-12-11T04:14:44.794Z,100754.81
2022-12-11T04:19:05.356Z,100762.47
2022-12-11T04:23:29.934Z,100749.78
2022-12-11T04:28:00.502Z,100743.69
2022-12-11T04:32:03.279Z,100742.03
2022-12-11T04:36:06.523Z,100738.50
2022-12-11T04:40:12.749Z,100740.22
2022-12-11T04:44:16.839Z,100735.38
2022-12-11T04:48:19.569Z,100720.47
2022-12-11T04:52:22.655Z,100723.22
2022-12-11T04:56:25.443Z,100719.59
2022-12-11T05:00:29.540Z,100716.78
2022-12-11T05:04:33.004Z,100724.41
2022-12-11T05:08:36.770Z,100711.63
2022-12-11T05:12:39.545Z,100711.41
2022-12-11T05:16:43.625Z,100716.91
2022-12-11T05:20:46.675Z,100715.56
2022-12-11T05:24:49.417Z,100711.16
2022-12-11T05:28:54.233Z,100714.13
2022-12-11T05:32:58.807Z,100715.97
2022-12-11T05:37:02.450Z,100705.09
2022-12-11T05:41:08.875Z,100716.63
2022-12-11T05:45:12.612Z,100713.84
2022-12-11T05:49:19.852Z,100719.84
2022-12-11T05:53:22.893Z,100715.44
2022-12-11T05:57:25.604Z,100710.56
2022-12-11T06:01:31.166Z,100705.84
2022-12-11T06:05:39.025Z,100716.56
2022-12-11T06:09:41.739Z,100711.03
2022-12-11T06:13:44.465Z,100709.53
2022-12-11T06:17:47.472Z,100705.84
2022-12-11T06:21:51.538Z,100699.53
2022-12-11T06:25:54.316Z,100706.28
2022-12-11T06:29:57.145Z,100708.78
2022-12-11T06:33:59.871Z,100704.91
2022-12-11T06:38:04.127Z,100705.38
2022-12-11T06:42:06.857Z,100708.06
2022-12-11T06:46:11.435Z,100697.16
2022-12-11T06:50:14.191Z,100705.84
2022-12-11T06:54:18.280Z,100694.91
2022-12-11T06:58:21.009Z,100693.63
2022-12-11T07:02:23.716Z,100698.28
2022-12-11T07:06:28.293Z,100701.84
2022-12-11T07:10:33.546Z,100710.03
2022-12-11T07:14:36.572Z,100711.69
2022-12-11T07:18:41.325Z,100714.84
2022-12-11T07:22:46.668Z,100716.69
2022-12-11T07:26:51.059Z,100719.19
2022-12-11T07:30:53.823Z,100715.59
2022-12-11T07:34:56.497Z,100719.19
2022-12-11T07:39:00.461Z,100722.69
2022-12-11T07:43:04.532Z,100729.38
2022-12-11T07:47:07.266Z,100732.16
2022-12-11T07:51:11.514Z,100728.09
2022-12-11T07:55:14.539Z,100732.94
2022-12-11T07:59:18.708Z,100738.78
2022-12-11T08:03:21.656Z,100733.22
2022-12-11T08:07:24.427Z,100726.56
2022-12-11T08:11:27.869Z,100735.38
2022-12-11T08:15:31.929Z,100722.16
2022-12-11T08:19:34.743Z,100725.31
2022-12-11T08:23:37.561Z,100726.50
2022-12-11T08:27:42.043Z,100721.75
2022-12-11T08:31:46.217Z,100730.13
2022-12-11T08:35:48.940Z,100730.78
2022-12-11T08:39:51.901Z,100727.75
2022-12-11T08:43:55.758Z,100722.69
2022-12-11T08:48:00.939Z,100721.19
2022-12-11T08:52:04.194Z,100718.53
2022-12-11T08:56:09.387Z,100720.47
2022-12-11T09:00:13.947Z,100716.78
2022-12-11T09:04:18.031Z,100722.13
2022-12-11T09:08:20.864Z,100718.06
2022-12-11T09:12:23.748Z,100719.91
2022-12-11T09:16:28.174Z,100713.72
2022-12-11T09:20:32.321Z,100710.97
2022-12-11T09:24:36.070Z,100706.38
2022-12-11T09:28:44.456Z,100703.97
2022-12-11T09:32:49.237Z,100708.97
2022-12-11T09:36:53.299Z,100705.94
2022-12-11T09:40:56.683Z,100696.06
2022-12-11T09:45:02.760Z,100699.09
2022-12-11T09:49:12.908Z,100705.16
2022-12-11T09:53:24.793Z,100699.47
2022-12-11T09:57:40.670Z,100701.59
2022-12-11T10:01:50.941Z,100702.88
2022-12-11T10:06:04.548Z,100709.06
2022-12-11T10:10:20.777Z,100702.34
2022-12-11T10:14:31.836Z,100705.31
2022-12-11T10:18:35.071Z,100711.97
2022-12-11T10:22:37.930Z,100695.88
2022-12-11T10:26:42.019Z,100694.84
2022-12-11T10:30:51.369Z,100698.22
2022-12-11T10:35:00.125Z,100698.47
2022-12-11T10:39:03.044Z,100694.22
2022-12-11T10:43:07.147Z,100694.22
2022-12-11T10:47:13.876Z,100692.66
2022-12-11T10:51:16.890Z,100689.34
2022-12-11T10:55:23.242Z,100688.97
2022-12-11T10:59:33.880Z,100683.88
2022-12-11T11:03:42.584Z,100688.22
2022-12-11T11:07:45.434Z,100686.28
2022-12-11T11:11:51.321Z,100689.34
2022-12-11T11:16:02.332Z,100682.97
2022-12-11T11:20:14.003Z,100678.44
2022-12-11T11:24:25.697Z,100675.38
2022-12-11T11:28:31.297Z,100665.94
2022-12-11T11:32:38.604Z,100657.06
2022-12-11T11:36:41.377Z,100658.38
2022-12-11T11:40:50.051Z,100662.88
2022-12-11T11:45:03.571Z,100662.25
2022-12-11T11:49:19.800Z,100673.16
2022-12-11T11:53:28.267Z,100671.69
2022-12-11T11:57:39.868Z,100664.94
2022-12-11T12:01:42.989Z,100663.06
2022-12-11T12:05:54.593Z,100652.72
2022-12-11T12:10:03.914Z,100663.91
2022-12-11T12:14:50.521Z,100660.28
2022-12-11T12:18:48.906Z,100653.94
2022-12-11T12:23:01.393Z,100647.91
2022-12-11T12:27:50.353Z,100650.78
2022-12-11T12:31:54.522Z,100636.97
2022-12-11T12:36:07.278Z,100641.91
2022-12-11T12:40:20.392Z,100645.59
2022-12-11T12:44:25.532Z,100646.34
2022-12-11T12:48:28.811Z,100644.69
2022-12-11T12:52:34.574Z,100642.28
2022-12-11T13:41:14.937Z,100661.31
2022-12-11T13:45:29.593Z,100658.97
2022-12-11T13:49:36.767Z,100662.69
2022-12-11T13:53:39.518Z,100651.69
2022-12-11T13:57:47.332Z,100660.41
2022-12-11T14:01:50.383Z,100655.16
2022-12-11T14:06:03.230Z,100662.50
2022-12-11T14:10:09.553Z,100659.59
2022-12-11T14:14:21.716Z,100661.38
2022-12-11T14:18:43.842Z,100659.78
2022-12-11T14:23:06.081Z,100656.84
2022-12-11T14:27:28.721Z,100655.91
2022-12-11T14:31:55.105Z,100662.78
2022-12-11T14:36:23.518Z,100654.03
2022-12-11T14:40:52.052Z,100658.91
2022-12-11T14:45:20.063Z,100659.09
2022-12-11T14:49:30.210Z,100652.25
2022-12-11T14:53:37.803Z,100663.34
2022-12-11T14:57:46.723Z,100674.16
2022-12-11T15:02:05.680Z,100660.13
2022-12-11T15:06:26.409Z,100663.63
2022-12-11T15:10:36.544Z,100667.34
2022-12-11T15:14:50.131Z,100667.50
2022-12-11T15:18:55.647Z,100659.47
2022-12-11T15:23:10.993Z,100659.22
2022-12-11T15:27:36.715Z,100658.38
2022-12-11T15:32:00.974Z,100664.72
2022-12-11T15:36:25.316Z,100668.25
2022-12-11T15:40:30.784Z,100668.81
2022-12-11T15:44:42.830Z,100676.56
2022-12-11T15:48:45.610Z,100678.25
2022-12-11T15:52:50.829Z,100685.66
2022-12-11T15:56:55.658Z,100681.13
2022-12-11T16:01:00.082Z,100682.47
2022-12-11T16:05:03.341Z,100675.47
2022-12-11T16:09:07.596Z,100675.66
2022-12-11T16:13:14.512Z,100670.84
2022-12-11T16:17:32.471Z,100675.56
2022-12-11T16:21:50.050Z,100685.44
2022-12-11T16:26:09.505Z,100684.97
2022-12-11T16:30:25.434Z,100678.56
2022-12-11T16:34:37.176Z,100682.66
2022-12-11T16:38:40.178Z,100684.97
2022-12-11T16:42:43.151Z,100685.44
2022-12-11T16:46:47.638Z,100679.88
2022-12-11T16:50:54.312Z,100687.09
2022-12-11T16:54:58.055Z,100682.75
2022-12-11T16:59:02.017Z,100687.09
2022-12-11T17:03:13.196Z,100688.56
2022-12-11T17:07:26.275Z,100682.19
2022-12-11T17:11:46.202Z,100682.47
2022-12-11T17:15:59.709Z,100686.47
2022-12-11T17:20:05.473Z,100686.28
2022-12-11T17:24:08.677Z,100693.47
2022-12-11T17:28:13.487Z,100687.94
2022-12-11T17:32:17.549Z,100686.72
2022-12-11T17:36:23.098Z,100692.56
2022-12-11T17:40:26.115Z,100689.69
2022-12-11T17:44:30.801Z,100693.19
2022-12-11T17:48:34.445Z,100695.75
2022-12-11T17:52:44.008Z,100695.13
2022-12-11T17:56:47.126Z,100694.50
2022-12-11T18:00:51.751Z,100697.09
2022-12-11T18:04:54.955Z,100702.75
2022-12-11T18:08:59.210Z,100697.56
2022-12-11T18:13:01.960Z,100686.78
2022-12-11T18:17:04.917Z,100686.88
2022-12-11T18:21:07.944Z,100690.88
2022-12-11T18:25:13.335Z,100693.19
2022-12-11T18:29:16.436Z,100686.63
2022-12-11T18:33:19.416Z,100686.28
2022-12-11T18:37:27.630Z,100695.78
2022-12-11T18:41:32.147Z,100691.44
2022-12-11T18:45:34.930Z,100692.28
2022-12-11T18:49:37.964Z,100697.72
2022-12-11T18:53:41.201Z,100692.16
2022-12-11T18:57:45.334Z,100692.47
2022-12-11T19:01:48.085Z,100697.44
2022-12-11T19:05:50.951Z,100703.81
2022-12-11T19:09:53.751Z,100698.84
2022-12-11T19:13:58.385Z,100694.59
2022-12-11T19:18:01.196Z,100697.63
2022-12-11T19:22:03.991Z,100690.13
2022-12-11T19:26:11.135Z,100688.00
2022-12-11T19:30:15.413Z,100698.06
2022-12-11T19:34:18.683Z,100703.06
2022-12-11T19:38:21.816Z,100708.63
2022-12-11T19:42:24.602Z,100699.91
2022-12-11T19:46:29.926Z,100695.03
2022-12-11T19:50:32.706Z,100701.78
2022-12-11T19:54:35.449Z,100697.72
2022-12-11T19:58:38.823Z,100702.44
2022-12-11T20:02:42.954Z,100701.44
2022-12-11T20:06:46.904Z,100704.75
2022-12-11T20:10:49.572Z,100699.78
2022-12-11T20:14:52.451Z,100699.78
2022-12-11T20:18:57.191Z,100699.78
2022-12-11T20:23:01.083Z,100701.25
2022-12-11T20:27:03.961Z,100701.44
2022-12-11T20:31:07.412Z,100701.06
2022-12-11T20:35:12.617Z,100705.56
2022-12-11T20:39:16.069Z,100694.50
2022-12-11T20:43:18.846Z,100692.66
2022-12-11T20:47:22.561Z,100694.50
2022-12-11T20:51:27.944Z,100696.34
2022-12-11T20:55:30.816Z,100685.63
2022-12-11T20:59:33.838Z,100691.00
2022-12-11T21:03:41.870Z,100687.94
2022-12-11T21:07:46.272Z,100696.47
2022-12-11T21:11:49.959Z,100690.06
2022-12-11T21:15:56.311Z,100695.63
2022-12-11T21:19:59.143Z,100693.94
2022-12-11T21:24:03.331Z,100698.31
2022-12-11T21:28:06.046Z,100702.16
2022-12-11T21:32:09.144Z,100695.63
2022-12-11T21:36:13.124Z,100696.06
2022-12-11T21:40:17.309Z,100696.81
2022-12-11T21:48:45.889Z,100690.41
2022-12-11T21:52:48.634Z,100692.06
2022-12-11T21:56:54.086Z,100693.59
2022-12-11T22:00:56.833Z,100700.31
2022-12-11T22:05:01.125Z,100698.16
2022-12-11T22:09:04.842Z,100699.66
2022-12-11T22:13:09.263Z,100702.63
2022-12-11T22:17:11.957Z,100703.38
2022-12-11T22:21:15.401Z,100705.38
2022-12-11T22:25:18.179Z,100702.06
2022-12-11T22:29:22.303Z,100721.19
2022-12-11T22:33:25.432Z,100713.16
2022-12-11T22:37:28.981Z,100718.84
2022-12-11T22:41:33.491Z,100713.50
2022-12-11T22:45:41.218Z,100719.34
2022-12-11T22:49:43.942Z,100721.44
2022-12-11T22:53:46.750Z,100716.38
2022-12-11T22:57:52.439Z,100714.19
2022-12-11T23:01:56.553Z,100713.81
2022-12-11T23:06:04.877Z,100724.25
2022-12-11T23:10:10.042Z,100719.34
2022-12-11T23:14:16.720Z,100723.22
2022-12-11T23:18:20.781Z,100736.47
2022-12-11T23:22:23.575Z,100733.41
2022-12-11T23:26:27.462Z,100733.22
2022-12-11T23:30:30.390Z,100741.94
2022-12-11T23:34:34.601Z,100734.91
2022-12-11T23:38:37.619Z,100735.16
2022-12-11T23:42:40.586Z,100734.50
2022-12-11T23:46:44.826Z,100728.56
2022-12-11T23:50:49.098Z,100725.91
2022-12-11T23:54:51.847Z,100736.28
2022-12-11T23:58:55.424Z,100726.38
